Bonaparte, IA (52620)

07:17 PM CDT am 01. September 2015 (GMT -0500)
KIADONNE3 | | Change Station
CLOSE
Current Station
Persönliche Wetterstationen
Location: Donnellson, IA
Höhe: 700 ft
Wetterstationen in der Umgebung

Höhe 700 ft 40.63 °N, 91.60 °W | Updated 17 seconds ago

Heiter
Heiter
83.1 °F
gefühlte 92 °F
N
0.0
Wind Wechselnd Wind aus Süd-Südwest
Gusts 0.0 mph

Heute
Max. -- | schwach -- °F
--% Regenrisiko
Gestern
Max. -- | schwach -- °F
Precip. -- inch
6:34 AM 7:39 PM
Drittes Viertel, 85% visible
Druck 29.99 inch
Sichtweite 10.0 Meilen
Wolken Heiter
Hitzeindex 92 °F
Taupunkt 76 °F
Feuchtigkeit 80%
Regen 0.00 inch
Schneehöhe Nicht verfügbar..
UV 0 von 12
Pollen 10.80 von 12
Luftqualität Nicht verfügbar..
Flu Activity Nicht verfügbar..
METAR KMPZ 012355Z AUTO 19004KT 10SM CLR 28/20 A2999 RMK AO2 T02750197 10341 20275
Druck 29.99 inch
Sichtweite 10.0 Meilen
Wolken Heiter
Hitzeindex 92 °F
Taupunkt 76 °F
Feuchtigkeit 80%
Regen 0.00 inch
Schneehöhe Nicht verfügbar..
UV 0 von 12
Pollen 10.80 von 12
Luftqualität Nicht verfügbar..
Flu Activity Nicht verfügbar..
METAR KMPZ 012355Z AUTO 19004KT 10SM CLR 28/20 A2999 RMK AO2 T02750197 10341 20275

10-Day Weather Forecast

×

Almanac

Astronomie

Sep. 01, 2015 Aufgang Untergang
Genaue Zeit
Bürgerliche Dämmerung
Nautische Dämmerung
Astronomische Dämmerung
Mond
Länge des sichtbaren Lichts
Tageslänge
Tomorrow will be .
, % of the Moon is Illuminated

Heutige Rekorde

State Highs State Lows

Community

WunderPhotos

Upload Photos

1,851,654 Fotos hochgeladen!

WunderBlogs® & News

Nearby

Luftqualität

  Luftqualität LQ Index Schadstoff
Not available.

Schneehöhe

Station Depth Höhe

Erdbebenaktivität

Stadt Distance Mag. Time & Date
Minimum magnitude displayed is 2.5.

küstennahe Wassertemperaturen

Ort Temperatur

Stations

Wetterstationen in der Umgebung

Stationsstandort Temp. Windchill Taupunkt Feuchtigkeit Wind Precip. Höhe Aktualisiert Art